createdAt,value
2022-08-07T00:03:13.155Z,4.20
2022-08-07T00:08:37.767Z,4.30
2022-08-07T00:14:08.696Z,3.30
2022-08-07T00:20:02.635Z,3.53
2022-08-07T00:25:17.686Z,3.50
2022-08-07T00:30:43.742Z,3.40
2022-08-07T00:36:07.844Z,3.53
2022-08-07T00:41:33.472Z,3.43
2022-08-07T00:47:01.791Z,4.37
2022-08-07T00:52:24.889Z,3.60
2022-08-07T00:57:55.843Z,4.50
2022-08-07T01:03:25.467Z,4.40
2022-08-07T01:09:05.495Z,3.90
2022-08-07T01:14:31.009Z,3.67
2022-08-07T01:20:02.363Z,4.10
2022-08-07T01:25:54.756Z,3.30
2022-08-07T01:31:15.512Z,4.60
2022-08-07T01:36:44.117Z,4.47
2022-08-07T01:42:38.096Z,3.73
2022-08-07T01:48:29.833Z,4.33
2022-08-07T01:54:12.341Z,4.20
2022-08-07T01:59:37.037Z,3.70
2022-08-07T02:05:16.167Z,4.23
2022-08-07T02:10:59.255Z,3.97
2022-08-07T02:16:28.620Z,4.17
2022-08-07T02:21:58.606Z,4.03
2022-08-07T02:27:25.023Z,3.70
2022-08-07T02:33:03.832Z,3.03
2022-08-07T02:38:36.498Z,3.73
2022-08-07T02:44:02.391Z,4.07
2022-08-07T02:49:58.202Z,4.37
2022-08-07T02:55:27.967Z,4.33
2022-08-07T03:01:04.852Z,4.20
2022-08-07T03:06:35.867Z,4.47
2022-08-07T03:12:03.672Z,4.87
2022-08-07T03:17:30.306Z,4.77
2022-08-07T03:23:04.515Z,4.70
2022-08-07T03:28:43.610Z,3.87
2022-08-07T03:34:08.672Z,4.93
2022-08-07T03:39:58.882Z,3.67
2022-08-07T03:45:30.254Z,4.43
2022-08-07T03:50:58.294Z,4.87
2022-08-07T03:56:34.705Z,4.20
2022-08-07T04:02:00.940Z,5.03
2022-08-07T04:07:24.599Z,5.00
2022-08-07T04:12:50.909Z,4.60
2022-08-07T04:18:58.386Z,5.17
2022-08-07T04:24:03.467Z,4.27
2022-08-07T04:29:48.862Z,4.97
2022-08-07T04:35:16.103Z,5.10
2022-08-07T04:40:51.269Z,4.97
2022-08-07T04:46:29.534Z,4.90
2022-08-07T04:52:07.975Z,4.90
2022-08-07T04:58:32.100Z,4.50
2022-08-07T05:03:59.861Z,5.30
2022-08-07T05:09:27.978Z,4.70
2022-08-07T05:15:21.627Z,6.43
2022-08-07T05:20:55.775Z,5.10
2022-08-07T05:26:24.171Z,5.07
2022-08-07T05:32:00.675Z,5.10
2022-08-07T05:37:29.722Z,6.00
2022-08-07T05:42:59.630Z,6.20
2022-08-07T05:48:26.357Z,5.60
2022-08-07T05:54:09.238Z,5.70
2022-08-07T05:59:57.215Z,5.87
2022-08-07T06:05:28.447Z,13.67
2022-08-07T06:10:56.943Z,5.77
2022-08-07T06:16:23.435Z,5.30
2022-08-07T06:22:15.415Z,4.77
2022-08-07T06:28:00.007Z,6.40
2022-08-07T06:33:23.415Z,5.30
2022-08-07T06:38:58.374Z,4.67
2022-08-07T06:44:33.921Z,5.20
2022-08-07T06:49:59.051Z,5.00
2022-08-07T06:55:48.059Z,5.00
2022-08-07T07:01:16.644Z,4.70
2022-08-07T07:07:00.279Z,4.10
2022-08-07T07:12:38.205Z,4.60
2022-08-07T07:18:19.131Z,4.47
2022-08-07T07:24:08.529Z,4.30
2022-08-07T07:30:09.430Z,4.90
2022-08-07T07:35:23.980Z,5.00
2022-08-07T07:41:02.083Z,4.20
2022-08-07T07:46:37.884Z,5.03
2022-08-07T07:52:12.799Z,4.30
2022-08-07T07:57:51.901Z,5.37
2022-08-07T08:04:06.243Z,4.40
2022-08-07T08:09:08.239Z,2.97
2022-08-07T08:14:34.502Z,4.50
2022-08-07T08:20:18.487Z,2.47
2022-08-07T08:26:08.299Z,3.17
2022-08-07T08:31:59.260Z,2.37
2022-08-07T08:38:01.507Z,1.80
2022-08-07T08:43:20.907Z,2.70
2022-08-07T08:49:00.490Z,2.27
2022-08-07T08:54:27.228Z,2.70
2022-08-07T09:00:02.178Z,3.10
2022-08-07T09:05:37.487Z,2.80
2022-08-07T09:11:14.013Z,1.90
2022-08-07T09:17:01.025Z,1.10
2022-08-07T09:24:33.191Z,1.50
2022-08-07T09:30:02.169Z,1.20
2022-08-07T09:34:26.352Z,1.63
2022-08-07T09:39:58.170Z,1.53
2022-08-07T09:47:20.263Z,1.83
2022-08-07T09:52:10.225Z,1.00
2022-08-07T09:58:01.132Z,1.37
2022-08-07T10:04:07.084Z,1.37
2022-08-07T10:10:03.770Z,1.70
2022-08-07T10:15:44.820Z,1.70
2022-08-07T10:21:50.590Z,1.40
2022-08-07T10:27:19.313Z,0.90
2022-08-07T10:33:01.016Z,1.70
2022-08-07T10:38:48.800Z,1.30
2022-08-07T10:44:19.488Z,1.10
2022-08-07T10:49:59.077Z,1.33
2022-08-07T10:55:37.636Z,0.97
2022-08-07T11:01:22.222Z,1.20
2022-08-07T11:07:15.120Z,1.00
2022-08-07T11:13:01.910Z,2.40
2022-08-07T11:18:35.264Z,1.50
2022-08-07T11:24:04.940Z,1.47
2022-08-07T11:29:47.265Z,1.33
2022-08-07T11:35:26.757Z,1.23
2022-08-07T11:40:56.215Z,1.23
2022-08-07T11:46:38.088Z,1.40
2022-08-07T11:52:20.753Z,0.90
2022-08-07T11:58:00.878Z,1.47
2022-08-07T12:03:46.426Z,1.40
2022-08-07T12:09:23.527Z,1.20
2022-08-07T12:14:51.476Z,1.00
2022-08-07T12:20:30.621Z,1.00
2022-08-07T12:26:23.360Z,1.30
2022-08-07T12:32:03.762Z,1.30
2022-08-07T12:38:09.721Z,1.43
2022-08-07T12:44:02.194Z,1.10
2022-08-07T12:49:09.911Z,1.10
2022-08-07T12:54:57.327Z,1.07
2022-08-07T13:00:36.054Z,1.50
2022-08-07T13:06:27.960Z,1.00
2022-08-07T13:12:02.385Z,1.30
2022-08-07T13:17:40.093Z,1.60
2022-08-07T13:24:00.711Z,1.10
2022-08-07T13:29:02.183Z,0.90
2022-08-07T13:34:36.502Z,1.40
2022-08-07T13:40:33.387Z,1.40
2022-08-07T13:46:20.811Z,1.30
2022-08-07T13:52:23.112Z,1.23
2022-08-07T13:57:38.546Z,2.77
2022-08-07T14:03:04.802Z,1.30
2022-08-07T14:08:29.907Z,1.20
2022-08-07T14:13:56.949Z,1.53
2022-08-07T14:20:42.554Z,1.50
2022-08-07T14:25:29.364Z,1.50
2022-08-07T14:31:03.044Z,1.37
2022-08-07T14:36:27.597Z,1.20
2022-08-07T14:42:20.778Z,1.50
2022-08-07T14:47:37.168Z,1.10
2022-08-07T14:53:07.671Z,1.47
2022-08-07T14:58:36.426Z,1.17
2022-08-07T15:04:05.830Z,1.10
2022-08-07T15:09:59.293Z,1.73
2022-08-07T15:15:25.413Z,1.40
2022-08-07T15:20:55.107Z,1.30
2022-08-07T15:26:28.850Z,1.43
2022-08-07T15:32:01.361Z,1.40
2022-08-07T15:38:17.276Z,1.40
2022-08-07T15:49:12.654Z,1.30
2022-08-07T15:54:40.730Z,1.20
2022-08-07T16:00:06.918Z,2.10
2022-08-07T16:05:32.783Z,1.37
2022-08-07T16:11:01.076Z,1.53
2022-08-07T16:16:56.981Z,1.40
2022-08-07T16:22:55.464Z,1.20
2022-08-07T16:30:06.876Z,1.40
2022-08-07T16:34:37.890Z,1.57
2022-08-07T16:40:28.356Z,1.43
2022-08-07T16:47:02.878Z,1.50
2022-08-07T16:52:50.554Z,1.40
2022-08-07T16:58:01.700Z,1.80
2022-08-07T17:04:00.023Z,1.20
2022-08-07T17:10:06.466Z,1.60
2022-08-07T17:15:28.821Z,1.60
2022-08-07T17:21:19.115Z,1.53
2022-08-07T17:26:55.909Z,1.93
2022-08-07T17:32:31.206Z,2.23
2022-08-07T17:38:11.316Z,1.50
2022-08-07T17:44:03.256Z,2.10
2022-08-07T17:49:39.384Z,1.77
2022-08-07T17:55:13.518Z,2.10
2022-08-07T18:00:48.865Z,1.60
2022-08-07T18:06:16.433Z,1.67
2022-08-07T18:12:07.334Z,1.53
2022-08-07T18:18:44.762Z,1.67
2022-08-07T18:23:42.983Z,2.20
2022-08-07T18:30:05.572Z,2.00
2022-08-07T18:35:16.755Z,2.20
2022-08-07T18:41:08.049Z,1.93
2022-08-07T18:46:42.950Z,3.17
2022-08-07T18:52:38.844Z,2.10
2022-08-07T18:58:20.649Z,1.70
2022-08-07T19:03:52.009Z,1.63
2022-08-07T19:09:55.595Z,1.77
2022-08-07T19:16:03.229Z,1.67
2022-08-07T19:21:09.260Z,2.03
2022-08-07T19:27:02.019Z,1.50
2022-08-07T19:32:42.346Z,1.80
2022-08-07T19:38:15.884Z,1.90
2022-08-07T19:43:52.159Z,1.80
2022-08-07T19:49:57.642Z,2.13
2022-08-07T19:55:11.115Z,2.67
2022-08-07T20:00:36.482Z,2.13
2022-08-07T20:06:03.197Z,2.50
2022-08-07T20:12:22.405Z,2.50
2022-08-07T20:17:14.678Z,2.50
2022-08-07T20:22:45.448Z,2.53
2022-08-07T20:28:12.774Z,2.50
2022-08-07T20:33:41.977Z,2.73
2022-08-07T20:40:01.469Z,2.73
2022-08-07T20:44:52.819Z,2.30
2022-08-07T20:50:21.197Z,2.40
2022-08-07T20:55:52.648Z,2.70
2022-08-07T21:01:19.869Z,2.63
2022-08-07T21:06:46.615Z,2.60
2022-08-07T21:12:25.923Z,2.40
2022-08-07T21:18:01.977Z,2.50
2022-08-07T21:23:49.271Z,2.77
2022-08-07T21:29:19.126Z,2.20
2022-08-07T21:34:49.074Z,2.43
2022-08-07T21:40:23.282Z,2.60
2022-08-07T21:46:11.079Z,2.60
2022-08-07T21:51:54.495Z,2.50
2022-08-07T21:57:39.840Z,2.10
2022-08-07T22:03:17.373Z,2.10
2022-08-07T22:08:50.021Z,2.30
2022-08-07T22:14:15.338Z,2.30
2022-08-07T22:20:05.007Z,2.57
2022-08-07T22:25:40.478Z,2.30
2022-08-07T22:31:11.412Z,2.20
2022-08-07T22:37:09.453Z,2.17
2022-08-07T22:42:37.166Z,2.40
2022-08-07T22:48:13.679Z,2.80
2022-08-07T22:54:09.460Z,2.40
2022-08-07T22:59:50.686Z,2.50
2022-08-07T23:06:07.048Z,2.53
2022-08-07T23:11:46.166Z,2.63
2022-08-07T23:17:24.168Z,2.70
2022-08-07T23:22:59.870Z,2.67
2022-08-07T23:28:44.155Z,2.70
2022-08-07T23:34:39.353Z,3.10
2022-08-07T23:40:23.798Z,3.40
2022-08-07T23:46:03.121Z,2.97
2022-08-07T23:53:00.668Z,3.23
2022-08-07T23:57:24.309Z,3.13
